sensor_id;sensor_type;location;lat;lon;timestamp;pressure;altitude;pressure_sealevel;temperature
50206;BMP280;36098;48.390;10.856;2023-03-19T00:01:48;95717.53;;;23.29
50206;BMP280;36098;48.390;10.856;2023-03-19T00:04:14;95702.84;;;23.24
50206;BMP280;36098;48.390;10.856;2023-03-19T00:06:40;95709.19;;;23.23
50206;BMP280;36098;48.390;10.856;2023-03-19T00:09:06;95708.63;;;23.26
50206;BMP280;36098;48.390;10.856;2023-03-19T00:11:31;95709.44;;;23.21
50206;BMP280;36098;48.390;10.856;2023-03-19T00:13:57;95717.66;;;23.20
50206;BMP280;36098;48.390;10.856;2023-03-19T00:16:22;95726.63;;;23.19
50206;BMP280;36098;48.390;10.856;2023-03-19T00:18:47;95722.06;;;23.24
50206;BMP280;36098;48.390;10.856;2023-03-19T00:21:13;95706.56;;;23.23
50206;BMP280;36098;48.390;10.856;2023-03-19T00:23:38;95717.03;;;23.27
50206;BMP280;36098;48.390;10.856;2023-03-19T00:26:03;95713.38;;;23.24
50206;BMP280;36098;48.390;10.856;2023-03-19T00:28:29;95714.97;;;23.25
50206;BMP280;36098;48.390;10.856;2023-03-19T00:30:54;95720.78;;;23.22
50206;BMP280;36098;48.390;10.856;2023-03-19T00:33:20;95716.13;;;23.09
50206;BMP280;36098;48.390;10.856;2023-03-19T00:35:45;95714.97;;;23.25
50206;BMP280;36098;48.390;10.856;2023-03-19T00:38:11;95713.72;;;23.17
50206;BMP280;36098;48.390;10.856;2023-03-19T00:40:36;95713.47;;;23.14
50206;BMP280;36098;48.390;10.856;2023-03-19T00:43:02;95726.13;;;23.12
50206;BMP280;36098;48.390;10.856;2023-03-19T00:45:27;95723.75;;;23.10
50206;BMP280;36098;48.390;10.856;2023-03-19T00:47:54;95724.03;;;23.09
50206;BMP280;36098;48.390;10.856;2023-03-19T00:50:20;95724.81;;;23.14
50206;BMP280;36098;48.390;10.856;2023-03-19T00:52:45;95722.97;;;23.10
50206;BMP280;36098;48.390;10.856;2023-03-19T00:55:10;95722.47;;;23.08
50206;BMP280;36098;48.390;10.856;2023-03-19T00:57:36;95717.19;;;23.08
50206;BMP280;36098;48.390;10.856;2023-03-19T01:00:01;95722.47;;;23.08
50206;BMP280;36098;48.390;10.856;2023-03-19T01:02:27;95718.75;;;23.14
50206;BMP280;36098;48.390;10.856;2023-03-19T01:04:52;95718.81;;;23.04
50206;BMP280;36098;48.390;10.856;2023-03-19T01:07:17;95731.97;;;23.04
50206;BMP280;36098;48.390;10.856;2023-03-19T01:09:42;95735.16;;;23.01
50206;BMP280;36098;48.390;10.856;2023-03-19T01:12:08;95730.91;;;23.05
50206;BMP280;36098;48.390;10.856;2023-03-19T01:14:33;95727.78;;;23.03
50206;BMP280;36098;48.390;10.856;2023-03-19T01:16:59;95734.84;;;23.12
50206;BMP280;36098;48.390;10.856;2023-03-19T01:19:24;95737.19;;;23.09
50206;BMP280;36098;48.390;10.856;2023-03-19T01:21:50;95728.34;;;23.00
50206;BMP280;36098;48.390;10.856;2023-03-19T01:24:15;95730.69;;;23.01
50206;BMP280;36098;48.390;10.856;2023-03-19T01:26:41;95728.78;;;23.07
50206;BMP280;36098;48.390;10.856;2023-03-19T01:29:06;95730.34;;;23.13
50206;BMP280;36098;48.390;10.856;2023-03-19T01:31:32;95738.88;;;23.00
50206;BMP280;36098;48.390;10.856;2023-03-19T01:33:57;95736.75;;;23.02
50206;BMP280;36098;48.390;10.856;2023-03-19T01:36:22;95741.97;;;23.07
50206;BMP280;36098;48.390;10.856;2023-03-19T01:38:47;95741.44;;;23.05
50206;BMP280;36098;48.390;10.856;2023-03-19T01:41:13;95743.84;;;23.01
50206;BMP280;36098;48.390;10.856;2023-03-19T01:43:38;95739.88;;;23.04
50206;BMP280;36098;48.390;10.856;2023-03-19T01:46:04;95741.22;;;23.01
50206;BMP280;36098;48.390;10.856;2023-03-19T01:48:38;95739.38;;;22.97
50206;BMP280;36098;48.390;10.856;2023-03-19T01:51:05;95741.00;;;22.98
50206;BMP280;36098;48.390;10.856;2023-03-19T01:53:31;95742.00;;;23.02
50206;BMP280;36098;48.390;10.856;2023-03-19T01:56:14;95736.69;;;23.07
50206;BMP280;36098;48.390;10.856;2023-03-19T01:58:40;95726.22;;;23.02
50206;BMP280;36098;48.390;10.856;2023-03-19T02:01:06;95730.47;;;22.98
50206;BMP280;36098;48.390;10.856;2023-03-19T02:03:32;95726.00;;;22.93
50206;BMP280;36098;48.390;10.856;2023-03-19T02:05:57;95733.66;;;22.90
50206;BMP280;36098;48.390;10.856;2023-03-19T02:08:23;95740.47;;;22.96
50206;BMP280;36098;48.390;10.856;2023-03-19T02:10:48;95730.47;;;22.98
50206;BMP280;36098;48.390;10.856;2023-03-19T02:13:14;95730.06;;;22.81
50206;BMP280;36098;48.390;10.856;2023-03-19T02:15:39;95732.34;;;22.92
50206;BMP280;36098;48.390;10.856;2023-03-19T02:18:05;95725.25;;;22.88
50206;BMP280;36098;48.390;10.856;2023-03-19T02:20:32;95733.25;;;23.06
50206;BMP280;36098;48.390;10.856;2023-03-19T02:25:28;95743.34;;;22.99
50206;BMP280;36098;48.390;10.856;2023-03-19T02:27:54;95738.88;;;22.95
50206;BMP280;36098;48.390;10.856;2023-03-19T02:32:48;95739.63;;;23.00
50206;BMP280;36098;48.390;10.856;2023-03-19T02:35:13;95744.16;;;22.95
50206;BMP280;36098;48.390;10.856;2023-03-19T02:37:38;95744.72;;;22.92
50206;BMP280;36098;48.390;10.856;2023-03-19T02:40:08;95745.56;;;22.82
50206;BMP280;36098;48.390;10.856;2023-03-19T02:42:34;95736.41;;;22.75
50206;BMP280;36098;48.390;10.856;2023-03-19T02:45:00;95739.81;;;22.80
50206;BMP280;36098;48.390;10.856;2023-03-19T02:47:25;95743.69;;;22.88
50206;BMP280;36098;48.390;10.856;2023-03-19T02:49:50;95742.47;;;22.75
50206;BMP280;36098;48.390;10.856;2023-03-19T02:52:16;95739.03;;;22.80
50206;BMP280;36098;48.390;10.856;2023-03-19T02:54:41;95738.78;;;22.76
50206;BMP280;36098;48.390;10.856;2023-03-19T02:57:06;95752.16;;;22.85
50206;BMP280;36098;48.390;10.856;2023-03-19T02:59:31;95747.19;;;22.78
50206;BMP280;36098;48.390;10.856;2023-03-19T03:01:57;95750.56;;;22.84
50206;BMP280;36098;48.390;10.856;2023-03-19T03:04:22;95754.28;;;22.83
50206;BMP280;36098;48.390;10.856;2023-03-19T03:06:47;95759.50;;;22.88
50206;BMP280;36098;48.390;10.856;2023-03-19T03:09:13;95767.38;;;22.88
50206;BMP280;36098;48.390;10.856;2023-03-19T03:11:38;95764.78;;;22.83
50206;BMP280;36098;48.390;10.856;2023-03-19T03:14:05;95760.28;;;22.88
50206;BMP280;36098;48.390;10.856;2023-03-19T03:16:30;95766.13;;;22.80
50206;BMP280;36098;48.390;10.856;2023-03-19T03:18:56;95770.84;;;22.83
50206;BMP280;36098;48.390;10.856;2023-03-19T03:21:21;95774.84;;;22.76
50206;BMP280;36098;48.390;10.856;2023-03-19T03:23:46;95760.03;;;22.85
50206;BMP280;36098;48.390;10.856;2023-03-19T03:26:12;95755.13;;;22.73
50206;BMP280;36098;48.390;10.856;2023-03-19T03:28:37;95757.47;;;22.75
50206;BMP280;36098;48.390;10.856;2023-03-19T03:31:03;95757.25;;;22.66
50206;BMP280;36098;48.390;10.856;2023-03-19T03:33:28;95748.56;;;22.71
50206;BMP280;36098;48.390;10.856;2023-03-19T03:35:53;95768.84;;;22.70
50206;BMP280;36098;48.390;10.856;2023-03-19T03:38:18;95765.34;;;22.80
50206;BMP280;36098;48.390;10.856;2023-03-19T03:40:43;95758.72;;;22.82
50206;BMP280;36098;48.390;10.856;2023-03-19T03:43:08;95763.78;;;22.79
50206;BMP280;36098;48.390;10.856;2023-03-19T03:45:34;95778.06;;;22.68
50206;BMP280;36098;48.390;10.856;2023-03-19T03:48:00;95790.75;;;22.61
50206;BMP280;36098;48.390;10.856;2023-03-19T03:50:25;95798.81;;;22.74
50206;BMP280;36098;48.390;10.856;2023-03-19T03:52:50;95798.84;;;22.69
50206;BMP280;36098;48.390;10.856;2023-03-19T03:55:15;95802.56;;;22.63
50206;BMP280;36098;48.390;10.856;2023-03-19T03:57:40;95799.09;;;22.68
50206;BMP280;36098;48.390;10.856;2023-03-19T04:00:06;95806.28;;;22.57
50206;BMP280;36098;48.390;10.856;2023-03-19T04:02:31;95809.69;;;22.63
50206;BMP280;36098;48.390;10.856;2023-03-19T04:04:56;95814.91;;;22.68
50206;BMP280;36098;48.390;10.856;2023-03-19T04:07:22;95812.59;;;22.56
50206;BMP280;36098;48.390;10.856;2023-03-19T04:09:47;95813.28;;;22.72
50206;BMP280;36098;48.390;10.856;2023-03-19T04:12:13;95818.03;;;22.70
50206;BMP280;36098;48.390;10.856;2023-03-19T04:14:38;95817.78;;;22.66
50206;BMP280;36098;48.390;10.856;2023-03-19T04:17:03;95821.31;;;22.52
50206;BMP280;36098;48.390;10.856;2023-03-19T04:19:29;95820.41;;;22.71
50206;BMP280;36098;48.390;10.856;2023-03-19T04:21:55;95831.75;;;22.67
50206;BMP280;36098;48.390;10.856;2023-03-19T04:24:20;95832.38;;;22.49
50206;BMP280;36098;48.390;10.856;2023-03-19T04:26:46;95836.53;;;22.60
50206;BMP280;36098;48.390;10.856;2023-03-19T04:29:12;95845.47;;;22.64
50206;BMP280;36098;48.390;10.856;2023-03-19T04:31:37;95849.47;;;22.46
50206;BMP280;36098;48.390;10.856;2023-03-19T04:34:03;95844.94;;;22.57
50206;BMP280;36098;48.390;10.856;2023-03-19T04:36:28;95843.38;;;22.61
50206;BMP280;36098;48.390;10.856;2023-03-19T04:38:53;95852.84;;;22.62
50206;BMP280;36098;48.390;10.856;2023-03-19T04:41:19;95842.31;;;22.57
50206;BMP280;36098;48.390;10.856;2023-03-19T04:43:44;95845.78;;;22.47
50206;BMP280;36098;48.390;10.856;2023-03-19T04:46:09;95836.00;;;22.58
50206;BMP280;36098;48.390;10.856;2023-03-19T04:48:34;95843.41;;;22.51
50206;BMP280;36098;48.390;10.856;2023-03-19T04:51:00;95841.31;;;22.48
50206;BMP280;36098;48.390;10.856;2023-03-19T04:53:27;95854.44;;;22.53
50206;BMP280;36098;48.390;10.856;2023-03-19T04:55:53;95861.28;;;22.59
50206;BMP280;36098;48.390;10.856;2023-03-19T04:58:18;95868.41;;;22.53
50206;BMP280;36098;48.390;10.856;2023-03-19T05:00:43;95869.44;;;22.57
50206;BMP280;36098;48.390;10.856;2023-03-19T05:03:10;95877.38;;;22.52
50206;BMP280;36098;48.390;10.856;2023-03-19T05:05:36;95882.88;;;22.51
50206;BMP280;36098;48.390;10.856;2023-03-19T05:08:01;95886.56;;;22.50
50206;BMP280;36098;48.390;10.856;2023-03-19T05:10:27;95893.16;;;22.47
50206;BMP280;36098;48.390;10.856;2023-03-19T05:12:52;95896.06;;;22.46
50206;BMP280;36098;48.390;10.856;2023-03-19T05:15:17;95898.72;;;22.41
50206;BMP280;36098;48.390;10.856;2023-03-19T05:17:42;95912.88;;;22.50
50206;BMP280;36098;48.390;10.856;2023-03-19T05:20:08;95923.72;;;22.38
50206;BMP280;36098;48.390;10.856;2023-03-19T05:22:35;95921.34;;;22.42
50206;BMP280;36098;48.390;10.856;2023-03-19T05:25:00;95922.00;;;22.67
50206;BMP280;36098;48.390;10.856;2023-03-19T05:27:25;95928.66;;;22.55
50206;BMP280;36098;48.390;10.856;2023-03-19T05:29:51;95930.22;;;22.56
50206;BMP280;36098;48.390;10.856;2023-03-19T05:32:16;95928.66;;;22.55
50206;BMP280;36098;48.390;10.856;2023-03-19T05:34:41;95934.44;;;22.52
50206;BMP280;36098;48.390;10.856;2023-03-19T05:37:07;95940.00;;;22.40
50206;BMP280;36098;48.390;10.856;2023-03-19T05:39:33;95945.53;;;22.44
50206;BMP280;36098;48.390;10.856;2023-03-19T05:41:58;95944.22;;;22.51
50206;BMP280;36098;48.390;10.856;2023-03-19T05:44:23;95954.44;;;22.53
50206;BMP280;36098;48.390;10.856;2023-03-19T05:46:48;95953.69;;;22.37
50206;BMP280;36098;48.390;10.856;2023-03-19T05:49:13;95960.75;;;22.37
50206;BMP280;36098;48.390;10.856;2023-03-19T05:51:38;95959.75;;;22.43
50206;BMP280;36098;48.390;10.856;2023-03-19T05:54:04;95964.97;;;22.53
50206;BMP280;36098;48.390;10.856;2023-03-19T05:56:29;95966.59;;;22.39
50206;BMP280;36098;48.390;10.856;2023-03-19T05:58:54;95966.84;;;22.32
50206;BMP280;36098;48.390;10.856;2023-03-19T06:01:19;95978.66;;;22.35
50206;BMP280;36098;48.390;10.856;2023-03-19T06:03:45;95972.91;;;22.28
50206;BMP280;36098;48.390;10.856;2023-03-19T06:06:10;95980.00;;;22.27
50206;BMP280;36098;48.390;10.856;2023-03-19T06:08:36;95978.44;;;22.06
50206;BMP280;36098;48.390;10.856;2023-03-19T06:11:01;95991.06;;;22.04
50206;BMP280;36098;48.390;10.856;2023-03-19T06:13:26;95985.28;;;22.17
50206;BMP280;36098;48.390;10.856;2023-03-19T06:15:51;95986.03;;;22.33
50206;BMP280;36098;48.390;10.856;2023-03-19T06:18:17;95988.94;;;22.46
50206;BMP280;36098;48.390;10.856;2023-03-19T06:20:42;95992.31;;;22.57
50206;BMP280;36098;48.390;10.856;2023-03-19T06:23:07;95999.16;;;22.68
50206;BMP280;36098;48.390;10.856;2023-03-19T06:25:32;96003.59;;;22.77
50206;BMP280;36098;48.390;10.856;2023-03-19T06:27:58;95994.88;;;22.87
50206;BMP280;36098;48.390;10.856;2023-03-19T06:30:23;95996.97;;;22.90
50206;BMP280;36098;48.390;10.856;2023-03-19T06:32:48;95994.31;;;22.90
50206;BMP280;36098;48.390;10.856;2023-03-19T06:35:14;96002.22;;;22.90
50206;BMP280;36098;48.390;10.856;2023-03-19T06:37:39;95999.88;;;22.88
50206;BMP280;36098;48.390;10.856;2023-03-19T06:40:04;95994.31;;;22.90
50206;BMP280;36098;48.390;10.856;2023-03-19T06:42:29;95997.44;;;22.97
50206;BMP280;36098;48.390;10.856;2023-03-19T06:44:55;95999.56;;;22.95
50206;BMP280;36098;48.390;10.856;2023-03-19T06:47:20;95994.84;;;22.92
50206;BMP280;36098;48.390;10.856;2023-03-19T06:49:45;96000.91;;;22.87
50206;BMP280;36098;48.390;10.856;2023-03-19T06:52:10;95998.53;;;22.91
50206;BMP280;36098;48.390;10.856;2023-03-19T06:54:36;96000.66;;;22.89
50206;BMP280;36098;48.390;10.856;2023-03-19T06:57:01;96005.13;;;22.88
50206;BMP280;36098;48.390;10.856;2023-03-19T06:59:26;95998.28;;;22.87
50206;BMP280;36098;48.390;10.856;2023-03-19T07:01:51;96009.34;;;22.89
50206;BMP280;36098;48.390;10.856;2023-03-19T07:04:16;96003.03;;;22.85
50206;BMP280;36098;48.390;10.856;2023-03-19T07:06:42;96004.88;;;22.85
50206;BMP280;36098;48.390;10.856;2023-03-19T07:09:07;96011.44;;;22.92
50206;BMP280;36098;48.390;10.856;2023-03-19T07:11:32;96016.94;;;23.01
50206;BMP280;36098;48.390;10.856;2023-03-19T07:13:57;96012.16;;;23.13
50206;BMP280;36098;48.390;10.856;2023-03-19T07:16:22;96014.25;;;23.21
50206;BMP280;36098;48.390;10.856;2023-03-19T07:18:48;96013.44;;;23.20
50206;BMP280;36098;48.390;10.856;2023-03-19T07:21:13;96021.09;;;23.22
50206;BMP280;36098;48.390;10.856;2023-03-19T07:23:38;96026.59;;;23.25
50206;BMP280;36098;48.390;10.856;2023-03-19T07:26:04;96017.41;;;23.23
50206;BMP280;36098;48.390;10.856;2023-03-19T07:28:29;96022.66;;;23.23
50206;BMP280;36098;48.390;10.856;2023-03-19T07:30:54;96022.66;;;23.23
50206;BMP280;36098;48.390;10.856;2023-03-19T07:33:20;96032.41;;;23.22
50206;BMP280;36098;48.390;10.856;2023-03-19T07:35:45;96028.47;;;23.20
50206;BMP280;36098;48.390;10.856;2023-03-19T07:38:11;96030.03;;;23.16
50206;BMP280;36098;48.390;10.856;2023-03-19T07:40:36;96031.38;;;23.18
50206;BMP280;36098;48.390;10.856;2023-03-19T07:43:01;96034.81;;;23.19
50206;BMP280;36098;48.390;10.856;2023-03-19T07:45:27;96040.06;;;23.19
50206;BMP280;36098;48.390;10.856;2023-03-19T07:47:52;96039.00;;;23.20
50206;BMP280;36098;48.390;10.856;2023-03-19T07:50:18;96040.50;;;23.40
50206;BMP280;36098;48.390;10.856;2023-03-19T07:52:47;96039.94;;;23.43
50206;BMP280;36098;48.390;10.856;2023-03-19T07:55:13;96046.84;;;23.29
50206;BMP280;36098;48.390;10.856;2023-03-19T07:57:38;96044.69;;;23.36
50206;BMP280;36098;48.390;10.856;2023-03-19T08:00:03;96045.75;;;23.40
50206;BMP280;36098;48.390;10.856;2023-03-19T08:02:29;96043.84;;;23.46
50206;BMP280;36098;48.390;10.856;2023-03-19T08:04:55;96049.38;;;23.49
50206;BMP280;36098;48.390;10.856;2023-03-19T08:07:20;96049.34;;;23.54
50206;BMP280;36098;48.390;10.856;2023-03-19T08:09:46;96045.94;;;23.54
50206;BMP280;36098;48.390;10.856;2023-03-19T08:12:12;96043.81;;;23.56
50206;BMP280;36098;48.390;10.856;2023-03-19T08:14:37;96053.03;;;23.58
50206;BMP280;36098;48.390;10.856;2023-03-19T08:17:02;96046.97;;;23.58
50206;BMP280;36098;48.390;10.856;2023-03-19T08:19:27;96060.63;;;23.65
50206;BMP280;36098;48.390;10.856;2023-03-19T08:21:52;96053.25;;;23.67
50206;BMP280;36098;48.390;10.856;2023-03-19T08:24:18;96057.91;;;23.80
50206;BMP280;36098;48.390;10.856;2023-03-19T08:26:43;96048.78;;;24.06
50206;BMP280;36098;48.390;10.856;2023-03-19T08:29:09;96048.06;;;24.29
50206;BMP280;36098;48.390;10.856;2023-03-19T08:31:34;96055.66;;;24.35
50206;BMP280;36098;48.390;10.856;2023-03-19T08:34:00;96051.22;;;24.31
50206;BMP280;36098;48.390;10.856;2023-03-19T08:36:27;96054.72;;;24.21
50206;BMP280;36098;48.390;10.856;2023-03-19T08:38:52;96056.19;;;24.32
50206;BMP280;36098;48.390;10.856;2023-03-19T08:41:19;96064.63;;;24.34
50206;BMP280;36098;48.390;10.856;2023-03-19T08:43:44;96061.41;;;24.42
50206;BMP280;36098;48.390;10.856;2023-03-19T08:46:09;96061.47;;;24.32
50206;BMP280;36098;48.390;10.856;2023-03-19T08:48:35;96064.47;;;24.26
50206;BMP280;36098;48.390;10.856;2023-03-19T08:51:01;96062.34;;;24.23
50206;BMP280;36098;48.390;10.856;2023-03-19T08:53:29;96065.53;;;24.20
50206;BMP280;36098;48.390;10.856;2023-03-19T08:55:56;96070.41;;;24.08
50206;BMP280;36098;48.390;10.856;2023-03-19T08:58:22;96076.03;;;23.96
50206;BMP280;36098;48.390;10.856;2023-03-19T09:00:47;96081.81;;;23.93
50206;BMP280;36098;48.390;10.856;2023-03-19T09:03:13;96077.66;;;23.87
50206;BMP280;36098;48.390;10.856;2023-03-19T09:05:38;96076.66;;;23.73
50206;BMP280;36098;48.390;10.856;2023-03-19T09:08:03;96076.41;;;23.75
50206;BMP280;36098;48.390;10.856;2023-03-19T09:10:28;96082.44;;;23.75
50206;BMP280;36098;48.390;10.856;2023-03-19T09:12:53;96089.22;;;23.91
50206;BMP280;36098;48.390;10.856;2023-03-19T09:15:19;96089.75;;;23.93
50206;BMP280;36098;48.390;10.856;2023-03-19T09:17:44;96095.00;;;23.98
50206;BMP280;36098;48.390;10.856;2023-03-19T09:20:09;96086.03;;;23.99
50206;BMP280;36098;48.390;10.856;2023-03-19T09:22:35;96096.34;;;23.96
50206;BMP280;36098;48.390;10.856;2023-03-19T09:25:00;96097.09;;;24.01
50206;BMP280;36098;48.390;10.856;2023-03-19T09:27:25;96088.00;;;24.17
50206;BMP280;36098;48.390;10.856;2023-03-19T09:29:51;96085.84;;;24.24
50206;BMP280;36098;48.390;10.856;2023-03-19T09:32:16;96095.97;;;24.07
50206;BMP280;36098;48.390;10.856;2023-03-19T09:34:41;96098.88;;;24.11
50206;BMP280;36098;48.390;10.856;2023-03-19T09:37:07;96087.16;;;24.27
50206;BMP280;36098;48.390;10.856;2023-03-19T09:39:32;96088.47;;;24.24
50206;BMP280;36098;48.390;10.856;2023-03-19T09:42:14;96096.06;;;23.97
50206;BMP280;36098;48.390;10.856;2023-03-19T09:44:43;96100.25;;;24.03
50206;BMP280;36098;48.390;10.856;2023-03-19T09:47:23;96094.13;;;24.41
50206;BMP280;36098;48.390;10.856;2023-03-19T09:49:50;96096.16;;;24.49
50206;BMP280;36098;48.390;10.856;2023-03-19T09:52:30;96082.97;;;24.49
50206;BMP280;36098;48.390;10.856;2023-03-19T09:54:59;96089.31;;;24.48
50206;BMP280;36098;48.390;10.856;2023-03-19T09:57:27;96083.50;;;24.51
50206;BMP280;36098;48.390;10.856;2023-03-19T09:59:54;96083.28;;;24.43
50206;BMP280;36098;48.390;10.856;2023-03-19T10:07:36;96077.47;;;24.17
50206;BMP280;36098;48.390;10.856;2023-03-19T10:10:49;96093.19;;;23.94
50206;BMP280;36098;48.390;10.856;2023-03-19T10:15:31;96085.06;;;23.85
50206;BMP280;36098;48.390;10.856;2023-03-19T10:20:40;96069.19;;;24.29
50206;BMP280;36098;48.390;10.856;2023-03-19T10:23:28;96074.91;;;24.02
50206;BMP280;36098;48.390;10.856;2023-03-19T10:25:55;96070.31;;;24.18
50206;BMP280;36098;48.390;10.856;2023-03-19T10:28:21;96071.97;;;24.09
50206;BMP280;36098;48.390;10.856;2023-03-19T10:31:37;96078.00;;;23.71
50206;BMP280;36098;48.390;10.856;2023-03-19T10:33:35;96080.13;;;23.69
50206;BMP280;36098;48.390;10.856;2023-03-19T10:36:07;96075.06;;;23.82
50206;BMP280;36098;48.390;10.856;2023-03-19T10:38:37;96076.72;;;23.63
50206;BMP280;36098;48.390;10.856;2023-03-19T10:41:15;96071.25;;;23.55
50206;BMP280;36098;48.390;10.856;2023-03-19T10:43:42;96069.38;;;23.60
50206;BMP280;36098;48.390;10.856;2023-03-19T10:46:11;96061.50;;;23.50
50206;BMP280;36098;48.390;10.856;2023-03-19T10:48:39;96068.34;;;23.51
50206;BMP280;36098;48.390;10.856;2023-03-19T10:51:06;96061.03;;;23.43
50206;BMP280;36098;48.390;10.856;2023-03-19T10:53:36;96051.25;;;23.44
50206;BMP280;36098;48.390;10.856;2023-03-19T10:56:02;96054.69;;;23.44
50206;BMP280;36098;48.390;10.856;2023-03-19T10:58:29;96055.56;;;23.73
50206;BMP280;36098;48.390;10.856;2023-03-19T11:00:55;96049.81;;;24.05
50206;BMP280;36098;48.390;10.856;2023-03-19T11:06:02;96054.63;;;23.59
50206;BMP280;36098;48.390;10.856;2023-03-19T11:08:28;96052.78;;;23.55
50206;BMP280;36098;48.390;10.856;2023-03-19T11:10:53;96052.78;;;23.55
50206;BMP280;36098;48.390;10.856;2023-03-19T11:13:22;96049.13;;;23.51
50206;BMP280;36098;48.390;10.856;2023-03-19T11:15:48;96049.13;;;23.51
50206;BMP280;36098;48.390;10.856;2023-03-19T11:18:20;96054.63;;;23.54
50206;BMP280;36098;48.390;10.856;2023-03-19T11:21:28;96049.88;;;23.56
50206;BMP280;36098;48.390;10.856;2023-03-19T11:23:38;96048.28;;;23.60
50206;BMP280;36098;48.390;10.856;2023-03-19T11:26:04;96046.19;;;23.57
50206;BMP280;36098;48.390;10.856;2023-03-19T11:28:29;96044.59;;;23.56
50206;BMP280;36098;48.390;10.856;2023-03-19T11:30:59;96043.56;;;23.57
50206;BMP280;36098;48.390;10.856;2023-03-19T11:57:48;96004.19;;;23.66
50206;BMP280;36098;48.390;10.856;2023-03-19T12:00:29;96011.88;;;23.62
50206;BMP280;36098;48.390;10.856;2023-03-19T12:05:32;96002.38;;;23.66
50206;BMP280;36098;48.390;10.856;2023-03-19T12:10:38;95997.13;;;23.61
50206;BMP280;36098;48.390;10.856;2023-03-19T12:13:16;95994.50;;;23.61
50206;BMP280;36098;48.390;10.856;2023-03-19T12:18:31;95988.63;;;23.69
50206;BMP280;36098;48.390;10.856;2023-03-19T12:28:48;95988.16;;;23.62
50206;BMP280;36098;48.390;10.856;2023-03-19T12:34:02;95987.88;;;23.64
50206;BMP280;36098;48.390;10.856;2023-03-19T12:36:28;95981.28;;;23.66
50206;BMP280;36098;48.390;10.856;2023-03-19T12:39:01;95978.38;;;23.68
50206;BMP280;36098;48.390;10.856;2023-03-19T12:41:29;95973.88;;;23.68
50206;BMP280;36098;48.390;10.856;2023-03-19T12:43:56;95973.31;;;23.71
50206;BMP280;36098;48.390;10.856;2023-03-19T12:46:25;95970.88;;;23.80
50206;BMP280;36098;48.390;10.856;2023-03-19T12:51:18;95964.53;;;23.81
50206;BMP280;36098;48.390;10.856;2023-03-19T12:53:46;95969.50;;;23.92
50206;BMP280;36098;48.390;10.856;2023-03-19T12:56:16;95965.78;;;23.93
50206;BMP280;36098;48.390;10.856;2023-03-19T12:58:45;95961.56;;;23.97
50206;BMP280;36098;48.390;10.856;2023-03-19T13:01:22;95955.03;;;23.85
50206;BMP280;36098;48.390;10.856;2023-03-19T13:04:00;95952.84;;;24.25
50206;BMP280;36098;48.390;10.856;2023-03-19T13:06:33;95949.91;;;24.79
50206;BMP280;36098;48.390;10.856;2023-03-19T13:09:17;95955.22;;;24.55
50206;BMP280;36098;48.390;10.856;2023-03-19T13:11:49;95946.91;;;24.38
50206;BMP280;36098;48.390;10.856;2023-03-19T13:14:29;95947.44;;;24.12
50206;BMP280;36098;48.390;10.856;2023-03-19T13:19:28;95942.06;;;24.45
50206;BMP280;36098;48.390;10.856;2023-03-19T13:21:54;95944.09;;;24.58
50206;BMP280;36098;48.390;10.856;2023-03-19T13:26:47;95945.44;;;24.74
50206;BMP280;36098;48.390;10.856;2023-03-19T13:31:41;95942.59;;;24.94
50206;BMP280;36098;48.390;10.856;2023-03-19T13:36:42;95942.06;;;24.92
50206;BMP280;36098;48.390;10.856;2023-03-19T13:39:12;95942.78;;;24.79
50206;BMP280;36098;48.390;10.856;2023-03-19T13:46:47;95932.56;;;24.73
50206;BMP280;36098;48.390;10.856;2023-03-19T13:51:37;95927.09;;;24.88
50206;BMP280;36098;48.390;10.856;2023-03-19T13:54:05;95927.34;;;24.86
50206;BMP280;36098;48.390;10.856;2023-03-19T13:56:36;95922.06;;;24.86
50206;BMP280;36098;48.390;10.856;2023-03-19T13:59:21;95916.78;;;24.86
50206;BMP280;36098;48.390;10.856;2023-03-19T14:01:47;95920.66;;;24.94
50206;BMP280;36098;48.390;10.856;2023-03-19T14:04:17;95912.72;;;24.94
50206;BMP280;36098;48.390;10.856;2023-03-19T14:06:44;95918.38;;;24.87
50206;BMP280;36098;48.390;10.856;2023-03-19T14:11:54;95907.44;;;24.75
50206;BMP280;36098;48.390;10.856;2023-03-19T14:14:20;95905.66;;;24.89
50206;BMP280;36098;48.390;10.856;2023-03-19T14:16:46;95903.31;;;24.88
50206;BMP280;36098;48.390;10.856;2023-03-19T14:19:15;95903.31;;;24.88
50206;BMP280;36098;48.390;10.856;2023-03-19T14:21:42;95899.16;;;24.82
50206;BMP280;36098;48.390;10.856;2023-03-19T14:24:20;95900.28;;;24.76
50206;BMP280;36098;48.390;10.856;2023-03-19T14:26:45;95904.28;;;24.73
50206;BMP280;36098;48.390;10.856;2023-03-19T14:29:12;95893.59;;;24.65
50206;BMP280;36098;48.390;10.856;2023-03-19T14:36:35;95893.09;;;24.81
50206;BMP280;36098;48.390;10.856;2023-03-19T14:39:06;95887.66;;;24.91
50206;BMP280;36098;48.390;10.856;2023-03-19T14:41:33;95882.97;;;24.88
50206;BMP280;36098;48.390;10.856;2023-03-19T14:44:08;95883.91;;;24.97
50206;BMP280;36098;48.390;10.856;2023-03-19T14:46:50;95875.50;;;24.95
50206;BMP280;36098;48.390;10.856;2023-03-19T14:54:47;95875.97;;;24.97
50206;BMP280;36098;48.390;10.856;2023-03-19T14:57:15;95871.81;;;24.91
50206;BMP280;36098;48.390;10.856;2023-03-19T14:59:41;95885.03;;;24.91
50206;BMP280;36098;48.390;10.856;2023-03-19T15:02:19;95868.91;;;24.93
50206;BMP280;36098;48.390;10.856;2023-03-19T15:04:45;95879.19;;;24.94
50206;BMP280;36098;48.390;10.856;2023-03-19T15:07:16;95875.19;;;24.97
50206;BMP280;36098;48.390;10.856;2023-03-19T15:09:42;95894.31;;;24.89
50206;BMP280;36098;48.390;10.856;2023-03-19T15:12:13;95877.09;;;24.91
50206;BMP280;36098;48.390;10.856;2023-03-19T15:17:27;95883.88;;;24.79
50206;BMP280;36098;48.390;10.856;2023-03-19T15:19:52;95873.31;;;24.79
50206;BMP280;36098;48.390;10.856;2023-03-19T15:22:21;95867.31;;;24.73
50206;BMP280;36098;48.390;10.856;2023-03-19T15:24:49;95880.88;;;24.67
50206;BMP280;36098;48.390;10.856;2023-03-19T15:27:24;95872.47;;;24.65
50206;BMP280;36098;48.390;10.856;2023-03-19T15:29:50;95872.31;;;24.56
50206;BMP280;36098;48.390;10.856;2023-03-19T15:32:35;95879.16;;;24.57